Observation data for Hart on 01/12/2018      Previous  Date  Next       Current Mesonet Observations  Soil Data  Daily Summary Page  Observations in Plain Language
KHRS 120600Z 06004KT M05/M11 A3026 RMK A01 T10481106  RH  065%=      5-min Rain = 0
KHRS 120605Z 07005KT M05/M11 A3025 RMK A01 T10491108  RH  064%=      5-min Rain = 0
KHRS 120610Z 07004KT M05/M11 A3025 RMK A01 T10511107  RH  065%=      5-min Rain = 0
KHRS 120615Z 07003KT M05/M11 A3025 RMK A01 T10511108  RH  065%=      5-min Rain = 0
KHRS 120620Z 07004KT M05/M11 A3025 RMK A01 T10521109  RH  065%=      5-min Rain = 0
KHRS 120625Z 07003KT M05/M11 A3025 RMK A01 T10521108  RH  066%=      5-min Rain = 0
KHRS 120630Z 07003KT M06/M11 A3024 RMK A01 T10551113  RH  065%=      5-min Rain = 0
KHRS 120635Z 08003KT M06/M12 A3024 RMK A01 T10581116  RH  064%=      5-min Rain = 0
KHRS 120640Z 07002KT M06/M13 A3024 RMK A01 T10641128  RH  061%=      5-min Rain = 0
KHRS 120645Z 07002KT M07/M13 A3024 RMK A01 T10711133  RH  062%=      5-min Rain = 0
KHRS 120650Z 07003KT M07/M13 A3024 RMK A01 T10731130  RH  064%=      5-min Rain = 0
KHRS 120655Z 07003KT M07/M13 A3023 RMK A01 T10721129  RH  064%=      5-min Rain = 0
KHRS 120700Z 07003KT M07/M13 A3023 RMK A01 T10711129  RH  064%=      5-min Rain = 0
KHRS 120705Z 09003KT M07/M13 A3023 RMK A01 T10701127  RH  065%=      5-min Rain = 0
KHRS 120710Z 09003KT M07/M13 A3023 RMK A01 T10691125  RH  066%=      5-min Rain = 0
KHRS 120715Z 09001KT M07/M13 A3023 RMK A01 T10711131  RH  063%=      5-min Rain = 0
KHRS 120720Z 11001KT M07/M13 A3023 RMK A01 T10741132  RH  064%=      5-min Rain = 0
KHRS 120725Z 26002KT M08/M14 A3023 RMK A01 T10811139  RH  064%=      5-min Rain = 0
KHRS 120730Z 25001KT M09/M14 A3023 RMK A01 T10851137  RH  067%=      5-min Rain = 0
KHRS 120735Z 25003KT M09/M14 A3023 RMK A01 T10851139  RH  066%=      5-min Rain = 0
KHRS 120740Z 25003KT M09/M14 A3023 RMK A01 T10871141  RH  066%=      5-min Rain = 0
KHRS 120745Z 25004KT M09/M14 A3023 RMK A01 T10881142  RH  066%=      5-min Rain = 0
KHRS 120750Z 24003KT M09/M14 A3023 RMK A01 T10871135  RH  069%=      5-min Rain = 0
KHRS 120755Z 24004KT M08/M13 A3023 RMK A01 T10821130  RH  069%=      5-min Rain = 0
KHRS 120800Z 24004KT M08/M13 A3023 RMK A01 T10811132  RH  068%=      5-min Rain = 0
KHRS 120805Z 24005KT M08/M14 A3023 RMK A01 T10841135  RH  067%=      5-min Rain = 0
KHRS 120810Z 24004KT M08/M13 A3023 RMK A01 T10831130  RH  070%=      5-min Rain = 0
KHRS 120815Z 24005KT M08/M13 A3023 RMK A01 T10821133  RH  068%=      5-min Rain = 0
KHRS 120820Z 24005KT M09/M13 A3023 RMK A01 T10851134  RH  069%=      5-min Rain = 0
KHRS 120825Z 24005KT M08/M13 A3023 RMK A01 T10831128  RH  071%=      5-min Rain = 0
KHRS 120830Z 24004KT M08/M13 A3024 RMK A01 T10831132  RH  069%=      5-min Rain = 0
KHRS 120835Z 24004KT M08/M14 A3023 RMK A01 T10841135  RH  068%=      5-min Rain = 0
KHRS 120840Z 24003KT M09/M13 A3023 RMK A01 T10851134  RH  069%=      5-min Rain = 0
KHRS 120845Z 24003KT M09/M14 A3023 RMK A01 T10861137  RH  068%=      5-min Rain = 0
KHRS 120850Z 24002KT M09/M14 A3023 RMK A01 T10881139  RH  067%=      5-min Rain = 0
KHRS 120855Z 23003KT M09/M14 A3022 RMK A01 T10901140  RH  068%=      5-min Rain = 0
KHRS 120900Z 21003KT M09/M14 A3022 RMK A01 T10911139  RH  069%=      5-min Rain = 0
KHRS 120905Z 21004KT M09/M13 A3021 RMK A01 T10881132  RH  072%=      5-min Rain = 0
KHRS 120910Z 20004KT M08/M13 A3021 RMK A01 T10811126  RH  071%=      5-min Rain = 0
KHRS 120915Z 20005KT M08/M12 A3021 RMK A01 T10761123  RH  070%=      5-min Rain = 0
KHRS 120920Z 19005KT M07/M12 A3021 RMK A01 T10741121  RH  070%=      5-min Rain = 0
KHRS 120925Z 19005KT M07/M12 A302 RMK A01 T10731119  RH  071%=      5-min Rain = 0
KHRS 120930Z 20004KT M07/M12 A3021 RMK A01 T10721118  RH  071%=      5-min Rain = 0
KHRS 120935Z 20004KT M07/M12 A3021 RMK A01 T10731120  RH  070%=      5-min Rain = 0
KHRS 120940Z 20004KT M08/M12 A302 RMK A01 T10751123  RH  069%=      5-min Rain = 0
KHRS 120945Z 19004KT M08/M12 A302 RMK A01 T10761122  RH  070%=      5-min Rain = 0
KHRS 120950Z 19003KT M07/M12 A302 RMK A01 T10741121  RH  070%=      5-min Rain = 0
KHRS 120955Z 19003KT M08/M12 A302 RMK A01 T10751122  RH  070%=      5-min Rain = 0
KHRS 121000Z 19003KT M08/M12 A302 RMK A01 T10751121  RH  071%=      5-min Rain = 0
KHRS 121005Z 20003KT M08/M12 A302 RMK A01 T10751124  RH  069%=      5-min Rain = 0
KHRS 121010Z 21004KT M08/M14 A302 RMK A01 T10821137  RH  065%=      5-min Rain = 0
KHRS 121015Z 21004KT M09/M14 A302 RMK A01 T10851135  RH  068%=      5-min Rain = 0
KHRS 121020Z 21004KT M09/M13 A3019 RMK A01 T10861134  RH  069%=      5-min Rain = 0
KHRS 121025Z 21005KT M09/M13 A3019 RMK A01 T10861133  RH  070%=      5-min Rain = 0
KHRS 121030Z 22004KT M09/M14 A302 RMK A01 T10891139  RH  068%=      5-min Rain = 0
KHRS 121035Z 22004KT M09/M14 A302 RMK A01 T10921140  RH  069%=      5-min Rain = 0
KHRS 121040Z 22005KT M09/M14 A302 RMK A01 T10941140  RH  070%=      5-min Rain = 0
KHRS 121045Z 22005KT M10/M14 A302 RMK A01 T10951140  RH  071%=      5-min Rain = 0
KHRS 121050Z 22005KT M09/M14 A302 RMK A01 T10941138  RH  072%=      5-min Rain = 0
KHRS 121055Z 23004KT M09/M14 A302 RMK A01 T10941137  RH  072%=      5-min Rain = 0
KHRS 121100Z 24005KT M09/M14 A302 RMK A01 T10941138  RH  071%=      5-min Rain = 0
KHRS 121105Z 24004KT M10/M14 A302 RMK A01 T10971139  RH  072%=      5-min Rain = 0
KHRS 121110Z 25004KT M09/M13 A302 RMK A01 T10941134  RH  074%=      5-min Rain = 0
KHRS 121115Z 25003KT M09/M13 A302 RMK A01 T10931134  RH  073%=      5-min Rain = 0
KHRS 121120Z 27003KT M09/M14 A302 RMK A01 T10931135  RH  073%=      5-min Rain = 0
KHRS 121125Z 28002KT M10/M14 A302 RMK A01 T10961137  RH  073%=      5-min Rain = 0
KHRS 121130Z 27002KT M09/M13 A3019 RMK A01 T10941134  RH  074%=      5-min Rain = 0
KHRS 121135Z 27002KT M10/M14 A3019 RMK A01 T10951136  RH  073%=      5-min Rain = 0
KHRS 121140Z 27001KT M10/M14 A3019 RMK A01 T10951135  RH  074%=      5-min Rain = 0
KHRS 121145Z 26002KT M10/M14 A3019 RMK A01 T10951135  RH  074%=      5-min Rain = 0
KHRS 121150Z 26002KT M09/M13 A3019 RMK A01 T10931129  RH  076%=      5-min Rain = 0
KHRS 121155Z 27002KT M09/M13 A302 RMK A01 T10871125  RH  075%=      5-min Rain = 0
KHRS 121200Z 27002KT M09/M13 A302 RMK A01 T10881128  RH  074%=      5-min Rain = 0
KHRS 121205Z 27002KT M09/M13 A302 RMK A01 T10901129  RH  074%=      5-min Rain = 0
KHRS 121210Z 26003KT M09/M13 A302 RMK A01 T10931132  RH  074%=      5-min Rain = 0
KHRS 121215Z 25003KT M09/M13 A302 RMK A01 T10931133  RH  074%=      5-min Rain = 0
KHRS 121220Z 24003KT M10/M14 A3019 RMK A01 T10951135  RH  074%=      5-min Rain = 0
KHRS 121225Z 22004KT M09/M12 A3019 RMK A01 T10901124  RH  078%=      5-min Rain = 0
KHRS 121230Z 22003KT M09/M12 A3019 RMK A01 T10851121  RH  076%=      5-min Rain = 0
KHRS 121235Z 22004KT M08/M12 A3018 RMK A01 T10831120  RH  076%=      5-min Rain = 0
KHRS 121240Z 22004KT M08/M12 A3018 RMK A01 T10821121  RH  075%=      5-min Rain = 0
KHRS 121245Z 22004KT M08/M12 A3019 RMK A01 T10841122  RH  075%=      5-min Rain = 0
KHRS 121250Z 22003KT M09/M13 A3019 RMK A01 T10871127  RH  074%=      5-min Rain = 0
KHRS 121255Z 24004KT M09/M13 A302 RMK A01 T10901132  RH  073%=      5-min Rain = 0
KHRS 121300Z 24006KT M10/M14 A3019 RMK A01 T10961140  RH  071%=      5-min Rain = 0
KHRS 121305Z 22008KT M09/M13 A3019 RMK A01 T10931126  RH  078%=      5-min Rain = 0
KHRS 121310Z 22008KT M09/M12 A3019 RMK A01 T10891122  RH  078%=      5-min Rain = 0
KHRS 121315Z 22007KT M09/M12 A3019 RMK A01 T10871121  RH  078%=      5-min Rain = 0
KHRS 121320Z 22006KT M09/M12 A3019 RMK A01 T10861120  RH  077%=      5-min Rain = 0
KHRS 121325Z 22005KT M09/M12 A3019 RMK A01 T10851122  RH  076%=      5-min Rain = 0
KHRS 121330Z 22005KT M09/M12 A302 RMK A01 T10861121  RH  076%=      5-min Rain = 0
KHRS 121335Z 22003KT M09/M12 A302 RMK A01 T10851122  RH  076%=      5-min Rain = 0
KHRS 121340Z 22003KT M09/M12 A302 RMK A01 T10851122  RH  076%=      5-min Rain = 0
KHRS 121345Z 22003KT M09/M12 A3021 RMK A01 T10851123  RH  075%=      5-min Rain = 0
KHRS 121350Z 22004KT M09/M12 A3021 RMK A01 T10851123  RH  075%=      5-min Rain = 0
KHRS 121355Z 23003KT M09/M13 A3021 RMK A01 T10861127  RH  073%=      5-min Rain = 0
KHRS 121400Z 22002KT M09/M13 A3021 RMK A01 T10911133  RH  072%=      5-min Rain = 0
KHRS 121405Z 21003KT M09/M13 A3021 RMK A01 T10931131  RH  075%=      5-min Rain = 0
KHRS 121410Z 19002KT M09/M13 A3021 RMK A01 T10901129  RH  075%=      5-min Rain = 0
KHRS 121415Z 19000KT M09/M13 A3021 RMK A01 T10901130  RH  074%=      5-min Rain = 0
KHRS 121420Z 18002KT M09/M13 A3021 RMK A01 T10871126  RH  075%=      5-min Rain = 0
KHRS 121425Z 17003KT M08/M12 A3021 RMK A01 T10801119  RH  074%=      5-min Rain = 0
KHRS 121430Z 17003KT M07/M11 A3021 RMK A01 T10721113  RH  073%=      5-min Rain = 0
KHRS 121435Z 17003KT M06/M11 A3021 RMK A01 T10631105  RH  073%=      5-min Rain = 0
KHRS 121440Z 17002KT M05/M10 A3021 RMK A01 T10541103  RH  070%=      5-min Rain = 0
KHRS 121445Z 18004KT M05/M10 A3021 RMK A01 T10521104  RH  068%=      5-min Rain = 0
KHRS 121450Z 17003KT M05/M10 A3021 RMK A01 T10501103  RH  067%=      5-min Rain = 0
KHRS 121455Z 17004KT M05/M10 A3021 RMK A01 T10471102  RH  067%=      5-min Rain = 0
KHRS 121500Z 18007KT M04/M10 A3021 RMK A01 T10441100  RH  066%=      5-min Rain = 0
KHRS 121505Z 17008KT M04/M10 A3021 RMK A01 T10381099  RH  064%=      5-min Rain = 0
KHRS 121510Z 17008KT M04/M10 A3021 RMK A01 T10361100  RH  062%=      5-min Rain = 0
KHRS 121515Z 17008KT M03/M10 A3021 RMK A01 T10341099  RH  061%=      5-min Rain = 0
KHRS 121520Z 17007KT M03/M10 A302 RMK A01 T10301096  RH  061%=      5-min Rain = 0
KHRS 121525Z 18009KT M02/M10 A302 RMK A01 T10241095  RH  059%=      5-min Rain = 0
KHRS 121530Z 17010G15KT M02/M09 A302 RMK A01 T10181093  RH  057%=      5-min Rain = 0
KHRS 121535Z 18010G18KT M01/M09 A302 RMK A01 T10141092  RH  056%=      5-min Rain = 0
KHRS 121540Z 18014KT M01/M09 A3019 RMK A01 T10111093  RH  055%=      5-min Rain = 0
KHRS 121545Z 18015G20KT M01/M09 A3019 RMK A01 T10081094  RH  053%=      5-min Rain = 0
KHRS 121550Z 19015G21KT M00/M10 A3019 RMK A01 T10041095  RH  051%=      5-min Rain = 0
KHRS 121555Z 18015G22KT M00/M10 A3018 RMK A01 T10021095  RH  050%=      5-min Rain = 0
KHRS 121600Z 18016KT 00/10 A3018 RMK A01 T00-00-96  RH  049%=      5-min Rain = 0
KHRS 121605Z 18013G20KT 00/M10 A3019 RMK A01 T00011096  RH  049%=      5-min Rain = 0
KHRS 121610Z 18014G19KT 00/M10 A302 RMK A01 T00031096  RH  048%=      5-min Rain = 0
KHRS 121615Z 18015G23KT 00/M10 A302 RMK A01 T00031095  RH  048%=      5-min Rain = 0
KHRS 121620Z 18015G21KT 01/M09 A3019 RMK A01 T00061094  RH  048%=      5-min Rain = 0
KHRS 121625Z 19015G20KT 01/M09 A3019 RMK A01 T00091094  RH  047%=      5-min Rain = 0
KHRS 121630Z 18014G21KT 01/M10 A302 RMK A01 T00111095  RH  046%=      5-min Rain = 0
KHRS 121635Z 18013G19KT 01/M10 A302 RMK A01 T00131095  RH  045%=      5-min Rain = 0
KHRS 121640Z 17012G18KT 02/M10 A302 RMK A01 T00151095  RH  044%=      5-min Rain = 0
KHRS 121645Z 18014G20KT 02/M10 A302 RMK A01 T00171095  RH  044%=      5-min Rain = 0
KHRS 121650Z 18011G16KT 02/M09 A302 RMK A01 T00181094  RH  044%=      5-min Rain = 0
KHRS 121655Z 18014G20KT 02/M10 A302 RMK A01 T00211098  RH  041%=      5-min Rain = 0
KHRS 121700Z 18013G19KT 03/M10 A302 RMK A01 T00251100  RH  040%=      5-min Rain = 0
KHRS 121705Z 18013G19KT 03/M10 A302 RMK A01 T00301101  RH  038%=      5-min Rain = 0
KHRS 121710Z 18013G19KT 03/M10 A3019 RMK A01 T00341104  RH  036%=      5-min Rain = 0
KHRS 121715Z 18013G20KT 04/M11 A3019 RMK A01 T00371106  RH  035%=      5-min Rain = 0
KHRS 121720Z 18013G18KT 04/M11 A3019 RMK A01 T00391106  RH  034%=      5-min Rain = 0
KHRS 121725Z 18013G20KT 04/M11 A3018 RMK A01 T00391107  RH  034%=      5-min Rain = 0
KHRS 121730Z 18016G22KT 04/M11 A3018 RMK A01 T00411110  RH  033%=      5-min Rain = 0
KHRS 121735Z 19017G24KT 05/M11 A3017 RMK A01 T00461108  RH  032%=      5-min Rain = 0
KHRS 121740Z 18015G22KT 05/M11 A3018 RMK A01 T00471109  RH  032%=      5-min Rain = 0
KHRS 121745Z 18016G22KT 05/M11 A3017 RMK A01 T00451106  RH  033%=      5-min Rain = 0
KHRS 121750Z 19016KT 05/M11 A3017 RMK A01 T00471105  RH  033%=      5-min Rain = 0
KHRS 121755Z 18016G23KT 05/M11 A3016 RMK A01 T00471106  RH  032%=      5-min Rain = 0
KHRS 121800Z 19015G22KT 05/M11 A3016 RMK A01 T00501105  RH  032%=      5-min Rain = 0
KHRS 121805Z 19016G23KT 06/M10 A3016 RMK A01 T00551103  RH  032%=      5-min Rain = 0
KHRS 121810Z 19016G21KT 06/M10 A3016 RMK A01 T00551103  RH  031%=      5-min Rain = 0
KHRS 121815Z 18014G21KT 06/M10 A3015 RMK A01 T00561103  RH  031%=      5-min Rain = 0
KHRS 121820Z 18016G22KT 06/M10 A3014 RMK A01 T00571103  RH  031%=      5-min Rain = 0
KHRS 121825Z 19016G21KT 06/M10 A3014 RMK A01 T00571101  RH  031%=      5-min Rain = 0
KHRS 121830Z 19014G19KT 06/M10 A3013 RMK A01 T00601101  RH  031%=      5-min Rain = 0
KHRS 121835Z 19015G20KT 06/M10 A3013 RMK A01 T00601101  RH  031%=      5-min Rain = 0
KHRS 121840Z 18014G22KT 06/M10 A3013 RMK A01 T00631100  RH  031%=      5-min Rain = 0
KHRS 121845Z 18014G19KT 06/M10 A3012 RMK A01 T00641100  RH  030%=      5-min Rain = 0
KHRS 121850Z 19014G22KT 07/M10 A3012 RMK A01 T00651099  RH  030%=      5-min Rain = 0
KHRS 121855Z 20016G22KT 07/M10 A3012 RMK A01 T00671096  RH  030%=      5-min Rain = 0
KHRS 121900Z 20016G21KT 07/M10 A3012 RMK A01 T00691095  RH  030%=      5-min Rain = 0
KHRS 121905Z 20017G22KT 07/M10 A3011 RMK A01 T00691096  RH  030%=      5-min Rain = 0
KHRS 121910Z 20015KT 07/M10 A3011 RMK A01 T00721095  RH  030%=      5-min Rain = 0
KHRS 121915Z 20015G20KT 07/M10 A3011 RMK A01 T00721095  RH  030%=      5-min Rain = 0
KHRS 121920Z 19013G20KT 08/M09 A3011 RMK A01 T00771093  RH  029%=      5-min Rain = 0
KHRS 121925Z 19015G21KT 08/M09 A3011 RMK A01 T00791093  RH  029%=      5-min Rain = 0
KHRS 121930Z 19016G21KT 08/M09 A301 RMK A01 T00781094  RH  029%=      5-min Rain = 0
KHRS 121935Z 19014KT 08/M09 A301 RMK A01 T00811093  RH  029%=      5-min Rain = 0
KHRS 121940Z 19015G20KT 08/M09 A301 RMK A01 T00811094  RH  028%=      5-min Rain = 0
KHRS 121945Z 19015G20KT 08/M09 A301 RMK A01 T00811093  RH  028%=      5-min Rain = 0
KHRS 121950Z 19015KT 08/M09 A3009 RMK A01 T00831092  RH  028%=      5-min Rain = 0
KHRS 121955Z 19015KT 09/M09 A3009 RMK A01 T00851090  RH  028%=      5-min Rain = 0
KHRS 122000Z 18012KT 09/M09 A3009 RMK A01 T00871090  RH  028%=      5-min Rain = 0
KHRS 122005Z 19012KT 09/M09 A3008 RMK A01 T00911089  RH  027%=      5-min Rain = 0
KHRS 122010Z 19013G18KT 09/M09 A3008 RMK A01 T00911090  RH  027%=      5-min Rain = 0
KHRS 122015Z 19013G18KT 09/M09 A3008 RMK A01 T00911087  RH  028%=      5-min Rain = 0
KHRS 122020Z 19014G19KT 09/M09 A3008 RMK A01 T00931088  RH  027%=      5-min Rain = 0
KHRS 122025Z 19013G18KT 09/M09 A3008 RMK A01 T00941086  RH  027%=      5-min Rain = 0
KHRS 122030Z 18010G16KT 10/M09 A3008 RMK A01 T00971085  RH  027%=      5-min Rain = 0
KHRS 122035Z 19011G16KT 10/M09 A3008 RMK A01 T00981086  RH  027%=      5-min Rain = 0
KHRS 122040Z 19012G18KT 10/M09 A3008 RMK A01 T00981086  RH  027%=      5-min Rain = 0
KHRS 122045Z 18011G18KT 10/M09 A3008 RMK A01 T00981086  RH  027%=      5-min Rain = 0
KHRS 122050Z 18009G16KT 10/M09 A3008 RMK A01 T01001085  RH  027%=      5-min Rain = 0
KHRS 122055Z 17010G18KT 10/M09 A3008 RMK A01 T01031085  RH  026%=      5-min Rain = 0
KHRS 122100Z 17009KT 10/M09 A3008 RMK A01 T01021086  RH  026%=      5-min Rain = 0
KHRS 122105Z 17009G16KT 10/M09 A3008 RMK A01 T01041086  RH  026%=      5-min Rain = 0
KHRS 122110Z 17010G15KT 10/M09 A3008 RMK A01 T01031086  RH  026%=      5-min Rain = 0
KHRS 122115Z 18011KT 10/M09 A3008 RMK A01 T01041086  RH  026%=      5-min Rain = 0
KHRS 122120Z 18009G15KT 10/M09 A3008 RMK A01 T01031086  RH  026%=      5-min Rain = 0
KHRS 122125Z 17010G17KT 11/M09 A3008 RMK A01 T01071087  RH  025%=      5-min Rain = 0
KHRS 122130Z 17009G14KT 11/M09 A3008 RMK A01 T01051086  RH  026%=      5-min Rain = 0
KHRS 122135Z 17009G14KT 11/M09 A3008 RMK A01 T01081085  RH  025%=      5-min Rain = 0
KHRS 122140Z 17009G15KT 11/M09 A3008 RMK A01 T01071086  RH  025%=      5-min Rain = 0
KHRS 122145Z 17010G15KT 10/M09 A3008 RMK A01 T01041086  RH  026%=      5-min Rain = 0
KHRS 122150Z 16009KT 11/M09 A3008 RMK A01 T01051085  RH  026%=      5-min Rain = 0
KHRS 122155Z 16010G16KT 11/M09 A3008 RMK A01 T01071085  RH  025%=      5-min Rain = 0
KHRS 122200Z 16010G15KT 10/M09 A3008 RMK A01 T01041086  RH  026%=      5-min Rain = 0
KHRS 122205Z 17009G14KT 11/M09 A3008 RMK A01 T01061085  RH  026%=      5-min Rain = 0
KHRS 122210Z 16010KT 11/M09 A3008 RMK A01 T01051086  RH  026%=      5-min Rain = 0
KHRS 122215Z 15011KT 10/M09 A3008 RMK A01 T01021087  RH  026%=      5-min Rain = 0
KHRS 122220Z 16011G17KT 10/M09 A3008 RMK A01 T01031086  RH  026%=      5-min Rain = 0
KHRS 122225Z 16010G15KT 10/M09 A3008 RMK A01 T01031086  RH  026%=      5-min Rain = 0
KHRS 122230Z 15010G16KT 10/M09 A3009 RMK A01 T01031086  RH  026%=      5-min Rain = 0
KHRS 122235Z 15011KT 10/M09 A3009 RMK A01 T01021087  RH  026%=      5-min Rain = 0
KHRS 122240Z 16009KT 10/M09 A3009 RMK A01 T01001087  RH  026%=      5-min Rain = 0
KHRS 122245Z 15010G16KT 10/M09 A3009 RMK A01 T01001087  RH  026%=      5-min Rain = 0
KHRS 122250Z 16010G16KT 10/M09 A3009 RMK A01 T00991087  RH  026%=      5-min Rain = 0
KHRS 122255Z 16010G15KT 10/M09 A301 RMK A01 T00981087  RH  027%=      5-min Rain = 0
KHRS 122300Z 15009KT 10/M09 A301 RMK A01 T00961088  RH  027%=      5-min Rain = 0
KHRS 122305Z 15008KT 09/M09 A301 RMK A01 T00941087  RH  027%=      5-min Rain = 0
KHRS 122310Z 14009G14KT 09/M09 A301 RMK A01 T00921088  RH  027%=      5-min Rain = 0
KHRS 122315Z 16009G15KT 09/M09 A301 RMK A01 T00921087  RH  028%=      5-min Rain = 0
KHRS 122320Z 14010G15KT 09/M09 A301 RMK A01 T00911088  RH  028%=      5-min Rain = 0
KHRS 122325Z 14011KT 09/M09 A301 RMK A01 T00881088  RH  028%=      5-min Rain = 0
KHRS 122330Z 14011KT 09/M09 A3011 RMK A01 T00861089  RH  028%=      5-min Rain = 0
KHRS 122335Z 14010KT 08/M09 A3011 RMK A01 T00841089  RH  029%=      5-min Rain = 0
KHRS 122340Z 14011KT 08/M09 A3011 RMK A01 T00821090  RH  029%=      5-min Rain = 0
KHRS 122345Z 14011KT 08/M09 A3011 RMK A01 T00781091  RH  029%=      5-min Rain = 0
KHRS 122350Z 13010KT 07/M09 A3012 RMK A01 T00731092  RH  030%=      5-min Rain = 0
KHRS 122355Z 13009KT 07/M10 A3012 RMK A01 T00691095  RH  030%=      5-min Rain = 0
KHRS 130000Z 13009KT 07/M10 A3012 RMK A01 T00651097  RH  031%=      5-min Rain = 0
KHRS 130005Z 13009KT 06/M10 A3013 RMK A01 T00611098  RH  031%=      5-min Rain = 0
KHRS 130010Z 13008KT 06/M10 A3013 RMK A01 T00571099  RH  032%=      5-min Rain = 0
KHRS 130015Z 12008KT 05/M10 A3013 RMK A01 T00541099  RH  033%=      5-min Rain = 0
KHRS 130020Z 11008KT 05/M10 A3014 RMK A01 T00511101  RH  033%=      5-min Rain = 0
KHRS 130025Z 09008KT 05/M10 A3015 RMK A01 T00471103  RH  033%=      5-min Rain = 0
KHRS 130030Z 09008KT 04/M10 A3015 RMK A01 T00411104  RH  034%=      5-min Rain = 0
KHRS 130035Z 11008KT 04/M10 A3015 RMK A01 T00401103  RH  035%=      5-min Rain = 0
KHRS 130040Z 10008KT 04/M11 A3015 RMK A01 T00391106  RH  034%=      5-min Rain = 0
KHRS 130045Z 09008KT 04/M11 A3016 RMK A01 T00371106  RH  035%=      5-min Rain = 0
KHRS 130050Z 09008KT 04/M11 A3017 RMK A01 T00371107  RH  035%=      5-min Rain = 0
KHRS 130055Z 09007KT 04/M11 A3017 RMK A01 T00351107  RH  035%=      5-min Rain = 0
KHRS 130100Z 10007KT 03/M11 A3018 RMK A01 T00321108  RH  035%=      5-min Rain = 0
KHRS 130105Z 08008KT 03/M11 A3018 RMK A01 T00301109  RH  036%=      5-min Rain = 0
KHRS 130110Z 08007KT 03/M11 A3019 RMK A01 T00271110  RH  036%=      5-min Rain = 0
KHRS 130115Z 07007KT 03/M11 A3019 RMK A01 T00251111  RH  036%=      5-min Rain = 0
KHRS 130120Z 07007KT 03/M11 A302 RMK A01 T00251108  RH  037%=      5-min Rain = 0
KHRS 130125Z 08008KT 03/M11 A3021 RMK A01 T00271105  RH  038%=      5-min Rain = 0
KHRS 130130Z 06009KT 03/M11 A3021 RMK A01 T00271107  RH  037%=      5-min Rain = 0
KHRS 130135Z 08010KT 03/M11 A3022 RMK A01 T00271107  RH  037%=      5-min Rain = 0
KHRS 130140Z 08010KT 03/M11 A3022 RMK A01 T00271107  RH  037%=      5-min Rain = 0
KHRS 130145Z 07010KT 03/M11 A3023 RMK A01 T00281108  RH  037%=      5-min Rain = 0
KHRS 130150Z 08010KT 03/M11 A3023 RMK A01 T00271108  RH  037%=      5-min Rain = 0
KHRS 130155Z 09010KT 02/M11 A3023 RMK A01 T00241110  RH  037%=      5-min Rain = 0
KHRS 130200Z 09009KT 02/M11 A3024 RMK A01 T00221111  RH  037%=      5-min Rain = 0
KHRS 130205Z 08008KT 02/M11 A3025 RMK A01 T00211113  RH  037%=      5-min Rain = 0
KHRS 130210Z 07009KT 02/M11 A3026 RMK A01 T00181113  RH  038%=      5-min Rain = 0
KHRS 130215Z 06009KT 02/M11 A3026 RMK A01 T00181111  RH  038%=      5-min Rain = 0
KHRS 130220Z 07009KT 02/M11 A3027 RMK A01 T00181113  RH  038%=      5-min Rain = 0
KHRS 130225Z 07009KT 02/M11 A3027 RMK A01 T00181111  RH  038%=      5-min Rain = 0
KHRS 130230Z 06008KT 02/M11 A3027 RMK A01 T00161110  RH  039%=      5-min Rain = 0
KHRS 130235Z 07007KT 01/M11 A3027 RMK A01 T00131110  RH  040%=      5-min Rain = 0
KHRS 130240Z 06008KT 01/M11 A3028 RMK A01 T00121109  RH  041%=      5-min Rain = 0
KHRS 130245Z 06009KT 01/M11 A3028 RMK A01 T00111108  RH  041%=      5-min Rain = 0
KHRS 130250Z 08010KT 01/M11 A3028 RMK A01 T00111110  RH  041%=      5-min Rain = 0
KHRS 130255Z 06011KT 01/M11 A3029 RMK A01 T00101111  RH  041%=      5-min Rain = 0
KHRS 130300Z 07009KT 01/M11 A3029 RMK A01 T00101110  RH  041%=      5-min Rain = 0
KHRS 130305Z 07010KT 01/M11 A3029 RMK A01 T00101110  RH  041%=      5-min Rain = 0
KHRS 130310Z 08011KT 01/M11 A3029 RMK A01 T00091111  RH  041%=      5-min Rain = 0
KHRS 130315Z 07010KT 01/M11 A303 RMK A01 T00091112  RH  040%=      5-min Rain = 0
KHRS 130320Z 07009KT 01/M11 A3031 RMK A01 T00081113  RH  040%=      5-min Rain = 0
KHRS 130325Z 07009KT 01/M12 A3032 RMK A01 T00071115  RH  040%=      5-min Rain = 0
KHRS 130330Z 07011KT 01/M12 A3032 RMK A01 T00061117  RH  040%=      5-min Rain = 0
KHRS 130335Z 07012KT 01/M12 A3032 RMK A01 T00051120  RH  039%=      5-min Rain = 0
KHRS 130340Z 07010KT 00/M12 A3033 RMK A01 T00041121  RH  039%=      5-min Rain = 0
KHRS 130345Z 07011KT 00/M12 A3033 RMK A01 T00041122  RH  039%=      5-min Rain = 0
KHRS 130350Z 08011G16KT 00/M12 A3034 RMK A01 T00031124  RH  038%=      5-min Rain = 0
KHRS 130355Z 06010G15KT 00/M13 A3035 RMK A01 T00021125  RH  039%=      5-min Rain = 0
KHRS 130400Z 07010KT M00/M13 A3035 RMK A01 T10011125  RH  039%=      5-min Rain = 0
KHRS 130405Z 06011KT M00/M13 A3036 RMK A01 T10031126  RH  040%=      5-min Rain = 0
KHRS 130410Z 07011KT M01/M13 A3036 RMK A01 T10051126  RH  040%=      5-min Rain = 0
KHRS 130415Z 07011KT M01/M13 A3036 RMK A01 T10071128  RH  040%=      5-min Rain = 0
KHRS 130420Z 07009KT M01/M13 A3036 RMK A01 T10101127  RH  041%=      5-min Rain = 0
KHRS 130425Z 07009KT M01/M13 A3037 RMK A01 T10111127  RH  042%=      5-min Rain = 0
KHRS 130430Z 07010KT M01/M13 A3037 RMK A01 T10141128  RH  042%=      5-min Rain = 0
KHRS 130435Z 07010KT M02/M13 A3037 RMK A01 T10161129  RH  042%=      5-min Rain = 0
KHRS 130440Z 08009KT M02/M13 A3037 RMK A01 T10191131  RH  043%=      5-min Rain = 0
KHRS 130445Z 08009KT M02/M13 A3037 RMK A01 T10221131  RH  044%=      5-min Rain = 0
KHRS 130450Z 08008KT M02/M13 A3037 RMK A01 T10241131  RH  044%=      5-min Rain = 0
KHRS 130455Z 08007KT M03/M13 A3037 RMK A01 T10271132  RH  045%=      5-min Rain = 0
KHRS 130500Z 08007KT M03/M13 A3037 RMK A01 T10301133  RH  045%=      5-min Rain = 0
KHRS 130505Z 08006KT M03/M14 A3037 RMK A01 T10331135  RH  046%=      5-min Rain = 0
KHRS 130510Z 07005KT M04/M14 A3038 RMK A01 T10361136  RH  046%=      5-min Rain = 0
KHRS 130515Z 07005KT M04/M14 A3038 RMK A01 T10381137  RH  047%=      5-min Rain = 0
KHRS 130520Z 07005KT M04/M14 A3038 RMK A01 T10391138  RH  047%=      5-min Rain = 0
KHRS 130525Z 06005KT M04/M14 A3039 RMK A01 T10411138  RH  047%=      5-min Rain = 0
KHRS 130530Z 05005KT M04/M14 A3039 RMK A01 T10431139  RH  048%=      5-min Rain = 0
KHRS 130535Z 05006KT M05/M14 A3039 RMK A01 T10461140  RH  049%=      5-min Rain = 0
KHRS 130540Z 04006KT M05/M14 A3039 RMK A01 T10501140  RH  050%=      5-min Rain = 0
KHRS 130545Z 05006KT M05/M14 A3039 RMK A01 T10531141  RH  051%=      5-min Rain = 0
KHRS 130550Z 05007KT M06/M14 A304 RMK A01 T10561140  RH  052%=      5-min Rain = 0
KHRS 130555Z 05006KT M06/M14 A304 RMK A01 T10571141  RH  052%=      5-min Rain = 0

Page generated in 0.0101 seconds.